KYIP/YIP METAR and TAF weather

Enter ICAO airport designator
Station Type Date Time Source
KYIP METAR 2020/08/15 16:53 UTC NOAA

KYIP 151653Z 07006KT 10SM CLR 29/19 A2995 RMK AO2 SLP135 T02940189


Station Type Date Time Source
KYIP Decoded METAR 2020/08/15 16:53 UTC NOAA

WILLOW RUN AIRPORT, MI, United States (KYIP) 42-14N 083-32W 215M
Aug 15, 2020 - 12:53 PM EDT / 2020.08.15 1653 UTC
Wind: from the ENE (070 degrees) at 7 MPH (6 KT):0
Visibility: 10 mile(s):0
Sky conditions: clear
Temperature: 84.9 F (29.4 C)
Dew Point: 66.0 F (18.9 C)
Relative Humidity: 53%
Pressure (altimeter): 29.95 in. Hg (1014 hPa)
ob: KYIP 151653Z 07006KT 10SM CLR 29/19 A2995 RMK AO2 SLP135 T02940189
cycle: 17

Station Type Date Time Source
KYIP TAF 2020/08/15 15:06 UTC NOAA

TAF
AMD KYIP 151505Z 1515/1612 07005KT P6SM SCT080 BKN200
FM151800 14006KT P6SM SCT070 BKN200
TEMPO 1522/1602 4SM -TSRA BKN040CB BKN070
FM160200 17006KT P6SM BKN120

Example: see airport list